sensor_id;sensor_type;location;lat;lon;timestamp;P1;durP1;ratioP1;P2;durP2;ratioP2
41643;SDS011;44236;48.098;11.582;2023-07-31T05:32:42;5.38;;;1.30;;
41643;SDS011;44236;48.098;11.582;2023-07-31T05:35:07;8.07;;;1.83;;
41643;SDS011;44236;48.098;11.582;2023-07-31T05:37:34;5.30;;;1.85;;
41643;SDS011;44236;48.098;11.582;2023-07-31T05:39:59;5.05;;;1.70;;
41643;SDS011;44236;48.098;11.582;2023-07-31T05:42:25;4.22;;;1.65;;
41643;SDS011;44236;48.098;11.582;2023-07-31T05:44:51;6.82;;;1.77;;
41643;SDS011;44236;48.098;11.582;2023-07-31T05:47:16;4.18;;;1.80;;
41643;SDS011;44236;48.098;11.582;2023-07-31T05:49:42;3.72;;;1.77;;
41643;SDS011;44236;48.098;11.582;2023-07-31T05:52:07;6.15;;;1.95;;
41643;SDS011;44236;48.098;11.582;2023-07-31T05:54:33;5.07;;;1.83;;
41643;SDS011;44236;48.098;11.582;2023-07-31T05:56:59;5.93;;;1.73;;
41643;SDS011;44236;48.098;11.582;2023-07-31T05:59:24;8.77;;;1.70;;
41643;SDS011;44236;48.098;11.582;2023-07-31T06:01:50;5.38;;;1.73;;
41643;SDS011;44236;48.098;11.582;2023-07-31T06:04:15;5.60;;;1.80;;
41643;SDS011;44236;48.098;11.582;2023-07-31T06:06:41;3.63;;;1.52;;
41643;SDS011;44236;48.098;11.582;2023-07-31T06:09:07;6.15;;;2.00;;
41643;SDS011;44236;48.098;11.582;2023-07-31T06:11:32;5.05;;;1.73;;
41643;SDS011;44236;48.098;11.582;2023-07-31T06:13:58;3.90;;;1.77;;
41643;SDS011;44236;48.098;11.582;2023-07-31T06:16:24;4.65;;;1.50;;
41643;SDS011;44236;48.098;11.582;2023-07-31T06:18:52;3.88;;;1.67;;
41643;SDS011;44236;48.098;11.582;2023-07-31T06:21:17;6.95;;;2.00;;
41643;SDS011;44236;48.098;11.582;2023-07-31T06:23:43;3.30;;;1.33;;
41643;SDS011;44236;48.098;11.582;2023-07-31T06:26:09;7.65;;;2.35;;
41643;SDS011;44236;48.098;11.582;2023-07-31T06:28:34;4.53;;;1.40;;
41643;SDS011;44236;48.098;11.582;2023-07-31T06:31:00;4.35;;;1.83;;
41643;SDS011;44236;48.098;11.582;2023-07-31T06:33:26;4.88;;;1.60;;
41643;SDS011;44236;48.098;11.582;2023-07-31T06:35:52;2.85;;;1.50;;
41643;SDS011;44236;48.098;11.582;2023-07-31T06:38:25;7.40;;;2.25;;
41643;SDS011;44236;48.098;11.582;2023-07-31T06:40:52;4.57;;;1.45;;
41643;SDS011;44236;48.098;11.582;2023-07-31T06:43:17;4.72;;;1.55;;
41643;SDS011;44236;48.098;11.582;2023-07-31T06:45:43;8.32;;;1.85;;
41643;SDS011;44236;48.098;11.582;2023-07-31T06:48:09;5.72;;;1.70;;
41643;SDS011;44236;48.098;11.582;2023-07-31T06:50:35;4.63;;;1.67;;
41643;SDS011;44236;48.098;11.582;2023-07-31T06:53:00;6.45;;;1.33;;
41643;SDS011;44236;48.098;11.582;2023-07-31T06:55:26;4.95;;;1.73;;
41643;SDS011;44236;48.098;11.582;2023-07-31T06:57:53;5.35;;;1.92;;
41643;SDS011;44236;48.098;11.582;2023-07-31T07:00:20;3.72;;;1.60;;
41643;SDS011;44236;48.098;11.582;2023-07-31T07:02:47;3.40;;;1.30;;
41643;SDS011;44236;48.098;11.582;2023-07-31T07:05:13;4.10;;;1.35;;
41643;SDS011;44236;48.098;11.582;2023-07-31T07:07:39;4.80;;;1.63;;
41643;SDS011;44236;48.098;11.582;2023-07-31T07:10:05;2.75;;;1.35;;
41643;SDS011;44236;48.098;11.582;2023-07-31T07:12:31;4.50;;;1.60;;
41643;SDS011;44236;48.098;11.582;2023-07-31T07:14:58;3.10;;;1.52;;
41643;SDS011;44236;48.098;11.582;2023-07-31T07:17:24;5.03;;;1.80;;
41643;SDS011;44236;48.098;11.582;2023-07-31T07:19:57;3.92;;;1.35;;
41643;SDS011;44236;48.098;11.582;2023-07-31T07:22:24;7.30;;;1.63;;
41643;SDS011;44236;48.098;11.582;2023-07-31T07:24:50;2.28;;;1.20;;
41643;SDS011;44236;48.098;11.582;2023-07-31T07:27:16;3.08;;;1.40;;
41643;SDS011;44236;48.098;11.582;2023-07-31T07:29:41;3.10;;;1.50;;
41643;SDS011;44236;48.098;11.582;2023-07-31T07:32:07;4.20;;;1.70;;
41643;SDS011;44236;48.098;11.582;2023-07-31T07:34:33;4.30;;;1.55;;
41643;SDS011;44236;48.098;11.582;2023-07-31T07:36:58;3.83;;;1.35;;
41643;SDS011;44236;48.098;11.582;2023-07-31T07:39:24;4.60;;;1.90;;
41643;SDS011;44236;48.098;11.582;2023-07-31T07:41:50;3.53;;;1.60;;
41643;SDS011;44236;48.098;11.582;2023-07-31T07:44:15;4.50;;;1.50;;
41643;SDS011;44236;48.098;11.582;2023-07-31T07:46:41;5.68;;;1.50;;
41643;SDS011;44236;48.098;11.582;2023-07-31T07:49:07;2.10;;;1.30;;
41643;SDS011;44236;48.098;11.582;2023-07-31T07:51:32;2.85;;;1.50;;
41643;SDS011;44236;48.098;11.582;2023-07-31T07:53:58;3.85;;;1.60;;
41643;SDS011;44236;48.098;11.582;2023-07-31T07:56:27;2.60;;;1.27;;
41643;SDS011;44236;48.098;11.582;2023-07-31T07:58:53;2.72;;;1.27;;
41643;SDS011;44236;48.098;11.582;2023-07-31T08:01:19;3.33;;;1.40;;
41643;SDS011;44236;48.098;11.582;2023-07-31T08:03:46;4.65;;;1.30;;
41643;SDS011;44236;48.098;11.582;2023-07-31T08:06:12;2.97;;;1.30;;
41643;SDS011;44236;48.098;11.582;2023-07-31T08:08:39;2.92;;;1.40;;
41643;SDS011;44236;48.098;11.582;2023-07-31T08:11:04;3.00;;;1.38;;
41643;SDS011;44236;48.098;11.582;2023-07-31T08:13:30;2.55;;;1.25;;
41643;SDS011;44236;48.098;11.582;2023-07-31T08:15:56;1.98;;;1.20;;
41643;SDS011;44236;48.098;11.582;2023-07-31T08:18:22;2.88;;;1.52;;
41643;SDS011;44236;48.098;11.582;2023-07-31T08:20:47;4.20;;;1.35;;
41643;SDS011;44236;48.098;11.582;2023-07-31T08:23:13;3.90;;;1.75;;
41643;SDS011;44236;48.098;11.582;2023-07-31T08:25:39;4.07;;;1.20;;
41643;SDS011;44236;48.098;11.582;2023-07-31T08:28:05;2.83;;;1.55;;
41643;SDS011;44236;48.098;11.582;2023-07-31T08:30:31;4.18;;;1.27;;
41643;SDS011;44236;48.098;11.582;2023-07-31T08:32:58;4.88;;;1.90;;
41643;SDS011;44236;48.098;11.582;2023-07-31T08:35:24;5.40;;;1.85;;
41643;SDS011;44236;48.098;11.582;2023-07-31T08:37:50;5.90;;;2.20;;
41643;SDS011;44236;48.098;11.582;2023-07-31T08:40:16;5.18;;;2.08;;
41643;SDS011;44236;48.098;11.582;2023-07-31T08:42:45;6.43;;;2.15;;
41643;SDS011;44236;48.098;11.582;2023-07-31T08:45:15;6.85;;;2.20;;
41643;SDS011;44236;48.098;11.582;2023-07-31T08:47:47;5.40;;;2.20;;
41643;SDS011;44236;48.098;11.582;2023-07-31T08:50:14;9.23;;;2.37;;
41643;SDS011;44236;48.098;11.582;2023-07-31T08:52:42;7.88;;;2.47;;
41643;SDS011;44236;48.098;11.582;2023-07-31T08:55:08;8.13;;;2.85;;
41643;SDS011;44236;48.098;11.582;2023-07-31T08:57:34;6.13;;;2.38;;
41643;SDS011;44236;48.098;11.582;2023-07-31T09:00:02;6.38;;;2.15;;
41643;SDS011;44236;48.098;11.582;2023-07-31T09:02:31;8.70;;;3.05;;
41643;SDS011;44236;48.098;11.582;2023-07-31T09:05:04;7.00;;;2.47;;
41643;SDS011;44236;48.098;11.582;2023-07-31T09:07:32;5.13;;;2.53;;
41643;SDS011;44236;48.098;11.582;2023-07-31T09:09:59;8.07;;;2.70;;
41643;SDS011;44236;48.098;11.582;2023-07-31T09:12:25;8.15;;;2.60;;
41643;SDS011;44236;48.098;11.582;2023-07-31T09:14:51;7.45;;;2.70;;
41643;SDS011;44236;48.098;11.582;2023-07-31T09:17:16;8.55;;;2.75;;
41643;SDS011;44236;48.098;11.582;2023-07-31T09:19:55;5.90;;;2.47;;
41643;SDS011;44236;48.098;11.582;2023-07-31T09:22:34;7.72;;;3.28;;
41643;SDS011;44236;48.098;11.582;2023-07-31T09:27:50;7.78;;;2.53;;
41643;SDS011;44236;48.098;11.582;2023-07-31T09:30:25;10.30;;;2.70;;
41643;SDS011;44236;48.098;11.582;2023-07-31T09:32:52;7.80;;;2.47;;
41643;SDS011;44236;48.098;11.582;2023-07-31T09:35:32;6.13;;;2.58;;
41643;SDS011;44236;48.098;11.582;2023-07-31T09:38:06;6.13;;;2.33;;
41643;SDS011;44236;48.098;11.582;2023-07-31T09:40:34;5.70;;;2.33;;
41643;SDS011;44236;48.098;11.582;2023-07-31T09:43:05;3.80;;;1.97;;
41643;SDS011;44236;48.098;11.582;2023-07-31T09:45:39;5.20;;;2.17;;
41643;SDS011;44236;48.098;11.582;2023-07-31T09:48:09;5.78;;;2.08;;
41643;SDS011;44236;48.098;11.582;2023-07-31T09:50:43;5.60;;;2.30;;
41643;SDS011;44236;48.098;11.582;2023-07-31T09:53:10;8.00;;;2.50;;
41643;SDS011;44236;48.098;11.582;2023-07-31T09:55:36;6.32;;;2.33;;
41643;SDS011;44236;48.098;11.582;2023-07-31T09:58:06;6.10;;;2.28;;
41643;SDS011;44236;48.098;11.582;2023-07-31T10:00:33;3.30;;;1.60;;
41643;SDS011;44236;48.098;11.582;2023-07-31T10:03:01;4.53;;;1.88;;
41643;SDS011;44236;48.098;11.582;2023-07-31T10:08:10;5.25;;;2.38;;
41643;SDS011;44236;48.098;11.582;2023-07-31T10:10:43;3.72;;;2.13;;
41643;SDS011;44236;48.098;11.582;2023-07-31T10:13:09;5.35;;;1.80;;
41643;SDS011;44236;48.098;11.582;2023-07-31T10:15:36;6.47;;;2.08;;
41643;SDS011;44236;48.098;11.582;2023-07-31T10:18:02;4.72;;;2.00;;
41643;SDS011;44236;48.098;11.582;2023-07-31T10:20:30;3.65;;;1.73;;
41643;SDS011;44236;48.098;11.582;2023-07-31T10:22:57;5.05;;;2.00;;
41643;SDS011;44236;48.098;11.582;2023-07-31T10:25:24;4.60;;;1.70;;
41643;SDS011;44236;48.098;11.582;2023-07-31T10:27:51;5.15;;;2.08;;
41643;SDS011;44236;48.098;11.582;2023-07-31T10:30:19;3.95;;;1.65;;
41643;SDS011;44236;48.098;11.582;2023-07-31T10:32:48;3.40;;;1.63;;
41643;SDS011;44236;48.098;11.582;2023-07-31T10:35:16;5.22;;;2.20;;
41643;SDS011;44236;48.098;11.582;2023-07-31T10:37:43;8.18;;;2.47;;
41643;SDS011;44236;48.098;11.582;2023-07-31T10:40:13;4.53;;;2.10;;
41643;SDS011;44236;48.098;11.582;2023-07-31T10:42:45;3.72;;;1.70;;
41643;SDS011;44236;48.098;11.582;2023-07-31T10:45:12;6.22;;;1.63;;
41643;SDS011;44236;48.098;11.582;2023-07-31T10:47:39;4.72;;;2.20;;
41643;SDS011;44236;48.098;11.582;2023-07-31T10:50:20;6.03;;;2.33;;
41643;SDS011;44236;48.098;11.582;2023-07-31T10:52:49;4.13;;;1.57;;
41643;SDS011;44236;48.098;11.582;2023-07-31T10:58:07;7.75;;;2.00;;
41643;SDS011;44236;48.098;11.582;2023-07-31T11:00:34;8.70;;;2.28;;
41643;SDS011;44236;48.098;11.582;2023-07-31T11:08:13;11.18;;;2.22;;
41643;SDS011;44236;48.098;11.582;2023-07-31T11:15:53;5.13;;;2.10;;
41643;SDS011;44236;48.098;11.582;2023-07-31T11:18:19;3.65;;;1.42;;
41643;SDS011;44236;48.098;11.582;2023-07-31T11:20:45;5.05;;;1.95;;
41643;SDS011;44236;48.098;11.582;2023-07-31T11:23:11;4.25;;;2.00;;
41643;SDS011;44236;48.098;11.582;2023-07-31T11:25:37;3.45;;;1.50;;
41643;SDS011;44236;48.098;11.582;2023-07-31T11:28:07;7.20;;;2.75;;
41643;SDS011;44236;48.098;11.582;2023-07-31T11:30:34;6.90;;;2.15;;
41643;SDS011;44236;48.098;11.582;2023-07-31T11:33:01;3.90;;;1.45;;
41643;SDS011;44236;48.098;11.582;2023-07-31T11:35:28;5.45;;;1.73;;
41643;SDS011;44236;48.098;11.582;2023-07-31T11:37:58;3.67;;;1.98;;
41643;SDS011;44236;48.098;11.582;2023-07-31T11:40:24;6.57;;;1.95;;
41643;SDS011;44236;48.098;11.582;2023-07-31T11:42:58;5.55;;;1.70;;
41643;SDS011;44236;48.098;11.582;2023-07-31T11:45:28;5.32;;;1.70;;
41643;SDS011;44236;48.098;11.582;2023-07-31T11:47:55;4.40;;;1.40;;
41643;SDS011;44236;48.098;11.582;2023-07-31T11:50:22;4.57;;;1.65;;
41643;SDS011;44236;48.098;11.582;2023-07-31T11:52:52;2.60;;;1.30;;
41643;SDS011;44236;48.098;11.582;2023-07-31T11:55:22;6.40;;;1.40;;
41643;SDS011;44236;48.098;11.582;2023-07-31T11:57:49;5.43;;;2.03;;
41643;SDS011;44236;48.098;11.582;2023-07-31T12:00:15;2.55;;;1.50;;
41643;SDS011;44236;48.098;11.582;2023-07-31T12:02:42;4.40;;;1.65;;
41643;SDS011;44236;48.098;11.582;2023-07-31T12:05:12;4.35;;;1.48;;
41643;SDS011;44236;48.098;11.582;2023-07-31T12:10:28;2.28;;;1.10;;
41643;SDS011;44236;48.098;11.582;2023-07-31T12:12:55;6.32;;;1.88;;
41643;SDS011;44236;48.098;11.582;2023-07-31T12:18:08;5.38;;;1.75;;
41643;SDS011;44236;48.098;11.582;2023-07-31T12:20:34;5.18;;;1.35;;
41643;SDS011;44236;48.098;11.582;2023-07-31T12:23:00;4.38;;;1.75;;
41643;SDS011;44236;48.098;11.582;2023-07-31T12:25:30;6.43;;;1.63;;
41643;SDS011;44236;48.098;11.582;2023-07-31T12:27:57;4.03;;;1.65;;
41643;SDS011;44236;48.098;11.582;2023-07-31T12:30:29;4.25;;;1.60;;
41643;SDS011;44236;48.098;11.582;2023-07-31T12:33:02;2.70;;;1.08;;
41643;SDS011;44236;48.098;11.582;2023-07-31T12:35:40;4.47;;;1.45;;
41643;SDS011;44236;48.098;11.582;2023-07-31T12:38:07;3.58;;;1.52;;
41643;SDS011;44236;48.098;11.582;2023-07-31T12:40:35;4.68;;;1.67;;
41643;SDS011;44236;48.098;11.582;2023-07-31T12:43:02;4.25;;;1.60;;
41643;SDS011;44236;48.098;11.582;2023-07-31T12:45:28;4.70;;;2.22;;
41643;SDS011;44236;48.098;11.582;2023-07-31T12:47:55;3.75;;;1.45;;
41643;SDS011;44236;48.098;11.582;2023-07-31T12:50:21;5.47;;;2.15;;
41643;SDS011;44236;48.098;11.582;2023-07-31T12:52:46;4.65;;;1.77;;
41643;SDS011;44236;48.098;11.582;2023-07-31T12:55:12;3.50;;;1.58;;
41643;SDS011;44236;48.098;11.582;2023-07-31T12:57:39;3.40;;;1.60;;
41643;SDS011;44236;48.098;11.582;2023-07-31T13:00:05;3.63;;;1.40;;
41643;SDS011;44236;48.098;11.582;2023-07-31T13:02:31;4.88;;;1.83;;
41643;SDS011;44236;48.098;11.582;2023-07-31T13:04:57;4.72;;;2.08;;
41643;SDS011;44236;48.098;11.582;2023-07-31T13:07:23;4.82;;;1.80;;
41643;SDS011;44236;48.098;11.582;2023-07-31T13:09:48;4.80;;;2.05;;
41643;SDS011;44236;48.098;11.582;2023-07-31T13:12:14;2.75;;;1.63;;
41643;SDS011;44236;48.098;11.582;2023-07-31T13:14:39;4.07;;;1.50;;
41643;SDS011;44236;48.098;11.582;2023-07-31T13:17:05;7.18;;;1.42;;
41643;SDS011;44236;48.098;11.582;2023-07-31T13:19:31;3.08;;;1.40;;
41643;SDS011;44236;48.098;11.582;2023-07-31T13:21:56;6.35;;;2.00;;
41643;SDS011;44236;48.098;11.582;2023-07-31T13:24:22;3.38;;;1.50;;
41643;SDS011;44236;48.098;11.582;2023-07-31T13:26:47;3.45;;;1.55;;
41643;SDS011;44236;48.098;11.582;2023-07-31T13:29:13;5.00;;;1.70;;
41643;SDS011;44236;48.098;11.582;2023-07-31T13:31:39;3.17;;;1.40;;
41643;SDS011;44236;48.098;11.582;2023-07-31T13:34:04;4.20;;;1.63;;
41643;SDS011;44236;48.098;11.582;2023-07-31T13:36:30;2.45;;;1.27;;
41643;SDS011;44236;48.098;11.582;2023-07-31T13:38:55;4.85;;;2.00;;
41643;SDS011;44236;48.098;11.582;2023-07-31T13:41:21;4.18;;;1.90;;
41643;SDS011;44236;48.098;11.582;2023-07-31T13:43:46;5.05;;;1.60;;
41643;SDS011;44236;48.098;11.582;2023-07-31T13:46:12;5.20;;;1.85;;
41643;SDS011;44236;48.098;11.582;2023-07-31T13:48:37;3.03;;;1.40;;
41643;SDS011;44236;48.098;11.582;2023-07-31T13:51:03;2.63;;;1.33;;
41643;SDS011;44236;48.098;11.582;2023-07-31T13:53:29;4.53;;;2.00;;
41643;SDS011;44236;48.098;11.582;2023-07-31T13:55:55;4.28;;;1.70;;
41643;SDS011;44236;48.098;11.582;2023-07-31T13:58:20;5.78;;;2.00;;
41643;SDS011;44236;48.098;11.582;2023-07-31T14:00:46;7.97;;;1.80;;
41643;SDS011;44236;48.098;11.582;2023-07-31T14:03:12;3.22;;;1.30;;
41643;SDS011;44236;48.098;11.582;2023-07-31T14:05:37;4.05;;;2.28;;
41643;SDS011;44236;48.098;11.582;2023-07-31T14:08:03;3.47;;;1.70;;
41643;SDS011;44236;48.098;11.582;2023-07-31T14:10:28;4.75;;;2.17;;
41643;SDS011;44236;48.098;11.582;2023-07-31T14:12:54;6.20;;;2.13;;
41643;SDS011;44236;48.098;11.582;2023-07-31T14:15:20;7.53;;;2.40;;
41643;SDS011;44236;48.098;11.582;2023-07-31T14:17:45;4.50;;;2.28;;
41643;SDS011;44236;48.098;11.582;2023-07-31T14:20:11;7.38;;;2.65;;
41643;SDS011;44236;48.098;11.582;2023-07-31T14:22:37;4.55;;;1.70;;
41643;SDS011;44236;48.098;11.582;2023-07-31T14:25:03;5.82;;;2.30;;
41643;SDS011;44236;48.098;11.582;2023-07-31T14:27:29;5.57;;;2.45;;
41643;SDS011;44236;48.098;11.582;2023-07-31T14:29:54;4.38;;;1.92;;
41643;SDS011;44236;48.098;11.582;2023-07-31T14:32:21;7.13;;;2.78;;
41643;SDS011;44236;48.098;11.582;2023-07-31T14:34:50;5.50;;;2.30;;
41643;SDS011;44236;48.098;11.582;2023-07-31T14:37:16;4.00;;;1.92;;
41643;SDS011;44236;48.098;11.582;2023-07-31T14:39:41;4.57;;;1.80;;
41643;SDS011;44236;48.098;11.582;2023-07-31T14:42:08;4.50;;;2.10;;
41643;SDS011;44236;48.098;11.582;2023-07-31T14:44:34;4.93;;;2.13;;
41643;SDS011;44236;48.098;11.582;2023-07-31T14:47:00;3.22;;;1.80;;
41643;SDS011;44236;48.098;11.582;2023-07-31T14:49:25;4.68;;;2.22;;
41643;SDS011;44236;48.098;11.582;2023-07-31T14:51:53;5.18;;;1.90;;
41643;SDS011;44236;48.098;11.582;2023-07-31T14:54:19;5.15;;;2.55;;
41643;SDS011;44236;48.098;11.582;2023-07-31T14:56:44;4.95;;;2.25;;
41643;SDS011;44236;48.098;11.582;2023-07-31T14:59:10;3.45;;;1.45;;
41643;SDS011;44236;48.098;11.582;2023-07-31T15:01:36;3.17;;;1.65;;
41643;SDS011;44236;48.098;11.582;2023-07-31T15:04:02;4.00;;;1.70;;
41643;SDS011;44236;48.098;11.582;2023-07-31T15:06:28;5.47;;;2.13;;
41643;SDS011;44236;48.098;11.582;2023-07-31T15:08:53;5.15;;;1.95;;
41643;SDS011;44236;48.098;11.582;2023-07-31T15:11:19;5.10;;;1.42;;
41643;SDS011;44236;48.098;11.582;2023-07-31T15:13:45;3.72;;;1.63;;
41643;SDS011;44236;48.098;11.582;2023-07-31T15:16:10;4.60;;;2.17;;
41643;SDS011;44236;48.098;11.582;2023-07-31T15:18:36;7.40;;;1.90;;
41643;SDS011;44236;48.098;11.582;2023-07-31T15:21:02;4.03;;;1.83;;
41643;SDS011;44236;48.098;11.582;2023-07-31T15:23:27;3.85;;;1.75;;
41643;SDS011;44236;48.098;11.582;2023-07-31T15:25:53;4.43;;;2.30;;
41643;SDS011;44236;48.098;11.582;2023-07-31T15:28:18;5.38;;;1.80;;
41643;SDS011;44236;48.098;11.582;2023-07-31T15:30:44;3.45;;;1.85;;
41643;SDS011;44236;48.098;11.582;2023-07-31T15:33:10;3.13;;;1.50;;
41643;SDS011;44236;48.098;11.582;2023-07-31T15:35:35;4.78;;;1.90;;
41643;SDS011;44236;48.098;11.582;2023-07-31T15:38:01;6.85;;;2.38;;
41643;SDS011;44236;48.098;11.582;2023-07-31T15:40:27;3.30;;;1.55;;
41643;SDS011;44236;48.098;11.582;2023-07-31T15:42:52;4.70;;;2.00;;
41643;SDS011;44236;48.098;11.582;2023-07-31T15:45:18;3.38;;;1.60;;
41643;SDS011;44236;48.098;11.582;2023-07-31T15:47:43;4.50;;;1.85;;
41643;SDS011;44236;48.098;11.582;2023-07-31T15:50:09;3.67;;;1.65;;
41643;SDS011;44236;48.098;11.582;2023-07-31T15:52:35;3.88;;;2.00;;
41643;SDS011;44236;48.098;11.582;2023-07-31T15:55:01;3.67;;;2.03;;
41643;SDS011;44236;48.098;11.582;2023-07-31T15:57:27;6.45;;;2.20;;
41643;SDS011;44236;48.098;11.582;2023-07-31T15:59:53;3.08;;;1.50;;
41643;SDS011;44236;48.098;11.582;2023-07-31T16:02:18;4.05;;;1.75;;
41643;SDS011;44236;48.098;11.582;2023-07-31T16:04:44;4.57;;;1.70;;
41643;SDS011;44236;48.098;11.582;2023-07-31T16:07:10;3.47;;;1.35;;
41643;SDS011;44236;48.098;11.582;2023-07-31T16:09:37;4.22;;;2.05;;
41643;SDS011;44236;48.098;11.582;2023-07-31T16:12:02;4.63;;;1.80;;
41643;SDS011;44236;48.098;11.582;2023-07-31T16:14:30;3.10;;;1.88;;
41643;SDS011;44236;48.098;11.582;2023-07-31T16:16:55;6.60;;;1.95;;
41643;SDS011;44236;48.098;11.582;2023-07-31T16:19:21;6.28;;;2.75;;
41643;SDS011;44236;48.098;11.582;2023-07-31T16:21:46;5.07;;;2.10;;
41643;SDS011;44236;48.098;11.582;2023-07-31T16:24:12;9.18;;;1.92;;
41643;SDS011;44236;48.098;11.582;2023-07-31T16:26:37;4.68;;;2.10;;
41643;SDS011;44236;48.098;11.582;2023-07-31T16:29:03;5.80;;;2.90;;
41643;SDS011;44236;48.098;11.582;2023-07-31T16:31:29;10.27;;;2.30;;
41643;SDS011;44236;48.098;11.582;2023-07-31T16:33:55;8.35;;;2.38;;
41643;SDS011;44236;48.098;11.582;2023-07-31T16:36:23;7.10;;;2.67;;
41643;SDS011;44236;48.098;11.582;2023-07-31T16:38:49;4.60;;;2.70;;
41643;SDS011;44236;48.098;11.582;2023-07-31T16:41:14;6.88;;;2.55;;
41643;SDS011;44236;48.098;11.582;2023-07-31T16:43:40;6.97;;;3.38;;
41643;SDS011;44236;48.098;11.582;2023-07-31T16:46:05;8.35;;;3.13;;
41643;SDS011;44236;48.098;11.582;2023-07-31T16:48:31;6.82;;;2.60;;
41643;SDS011;44236;48.098;11.582;2023-07-31T16:50:57;9.65;;;3.10;;
41643;SDS011;44236;48.098;11.582;2023-07-31T16:53:22;6.68;;;2.20;;
41643;SDS011;44236;48.098;11.582;2023-07-31T16:55:48;4.95;;;2.13;;
41643;SDS011;44236;48.098;11.582;2023-07-31T16:58:13;4.75;;;2.22;;
41643;SDS011;44236;48.098;11.582;2023-07-31T17:00:39;7.03;;;2.85;;
41643;SDS011;44236;48.098;11.582;2023-07-31T17:03:05;9.95;;;2.55;;
41643;SDS011;44236;48.098;11.582;2023-07-31T17:05:30;7.95;;;1.98;;
41643;SDS011;44236;48.098;11.582;2023-07-31T17:07:56;7.60;;;2.25;;
41643;SDS011;44236;48.098;11.582;2023-07-31T17:10:22;10.57;;;2.45;;
41643;SDS011;44236;48.098;11.582;2023-07-31T17:12:48;8.23;;;3.30;;
41643;SDS011;44236;48.098;11.582;2023-07-31T17:15:14;8.80;;;2.80;;
41643;SDS011;44236;48.098;11.582;2023-07-31T17:17:39;7.78;;;2.45;;
41643;SDS011;44236;48.098;11.582;2023-07-31T17:20:05;10.77;;;2.60;;
41643;SDS011;44236;48.098;11.582;2023-07-31T17:22:31;6.75;;;2.47;;
41643;SDS011;44236;48.098;11.582;2023-07-31T17:24:57;8.75;;;2.78;;
41643;SDS011;44236;48.098;11.582;2023-07-31T17:27:22;5.38;;;2.20;;
41643;SDS011;44236;48.098;11.582;2023-07-31T17:29:49;8.43;;;2.28;;
41643;SDS011;44236;48.098;11.582;2023-07-31T17:32:15;6.30;;;2.42;;
41643;SDS011;44236;48.098;11.582;2023-07-31T17:34:41;5.38;;;1.90;;
41643;SDS011;44236;48.098;11.582;2023-07-31T17:37:08;7.03;;;2.50;;
41643;SDS011;44236;48.098;11.582;2023-07-31T17:39:34;9.75;;;2.58;;
41643;SDS011;44236;48.098;11.582;2023-07-31T17:42:00;8.80;;;2.42;;
41643;SDS011;44236;48.098;11.582;2023-07-31T17:44:26;6.32;;;2.33;;
41643;SDS011;44236;48.098;11.582;2023-07-31T17:46:52;6.65;;;2.15;;
41643;SDS011;44236;48.098;11.582;2023-07-31T17:49:18;10.50;;;2.08;;
41643;SDS011;44236;48.098;11.582;2023-07-31T17:51:43;5.93;;;2.38;;
41643;SDS011;44236;48.098;11.582;2023-07-31T17:54:09;7.30;;;2.53;;
41643;SDS011;44236;48.098;11.582;2023-07-31T17:56:35;8.52;;;2.15;;
41643;SDS011;44236;48.098;11.582;2023-07-31T17:59:03;7.13;;;2.75;;
41643;SDS011;44236;48.098;11.582;2023-07-31T18:01:30;7.75;;;2.53;;
41643;SDS011;44236;48.098;11.582;2023-07-31T18:03:55;6.20;;;1.80;;
41643;SDS011;44236;48.098;11.582;2023-07-31T18:06:21;6.00;;;2.80;;
41643;SDS011;44236;48.098;11.582;2023-07-31T18:08:46;7.68;;;2.70;;
41643;SDS011;44236;48.098;11.582;2023-07-31T18:11:12;7.88;;;2.63;;
41643;SDS011;44236;48.098;11.582;2023-07-31T18:13:39;5.13;;;2.25;;
41643;SDS011;44236;48.098;11.582;2023-07-31T18:16:04;10.55;;;2.85;;
41643;SDS011;44236;48.098;11.582;2023-07-31T18:18:30;4.97;;;3.00;;
41643;SDS011;44236;48.098;11.582;2023-07-31T18:20:56;13.80;;;3.55;;
41643;SDS011;44236;48.098;11.582;2023-07-31T18:23:21;9.68;;;3.17;;
41643;SDS011;44236;48.098;11.582;2023-07-31T18:25:47;12.00;;;2.22;;
41643;SDS011;44236;48.098;11.582;2023-07-31T18:28:13;6.43;;;2.83;;
41643;SDS011;44236;48.098;11.582;2023-07-31T18:30:38;8.35;;;2.80;;
41643;SDS011;44236;48.098;11.582;2023-07-31T18:33:04;11.20;;;2.78;;
41643;SDS011;44236;48.098;11.582;2023-07-31T18:35:30;6.35;;;2.78;;
41643;SDS011;44236;48.098;11.582;2023-07-31T18:37:55;8.60;;;2.83;;
41643;SDS011;44236;48.098;11.582;2023-07-31T18:40:21;4.63;;;2.67;;
41643;SDS011;44236;48.098;11.582;2023-07-31T18:42:47;5.63;;;2.83;;
41643;SDS011;44236;48.098;11.582;2023-07-31T18:45:12;9.32;;;2.88;;
41643;SDS011;44236;48.098;11.582;2023-07-31T18:47:38;17.60;;;4.10;;
41643;SDS011;44236;48.098;11.582;2023-07-31T18:50:04;11.57;;;3.28;;
41643;SDS011;44236;48.098;11.582;2023-07-31T18:52:30;8.35;;;2.65;;
41643;SDS011;44236;48.098;11.582;2023-07-31T18:54:56;22.17;;;3.13;;
41643;SDS011;44236;48.098;11.582;2023-07-31T18:57:22;12.23;;;2.90;;
41643;SDS011;44236;48.098;11.582;2023-07-31T18:59:47;7.30;;;2.90;;
41643;SDS011;44236;48.098;11.582;2023-07-31T19:02:13;6.80;;;2.78;;
41643;SDS011;44236;48.098;11.582;2023-07-31T19:04:39;6.80;;;2.63;;
41643;SDS011;44236;48.098;11.582;2023-07-31T19:07:04;7.70;;;3.28;;
41643;SDS011;44236;48.098;11.582;2023-07-31T19:09:30;9.13;;;2.35;;
41643;SDS011;44236;48.098;11.582;2023-07-31T19:11:58;17.00;;;3.33;;
41643;SDS011;44236;48.098;11.582;2023-07-31T19:14:24;7.32;;;2.45;;
41643;SDS011;44236;48.098;11.582;2023-07-31T19:16:50;6.68;;;2.60;;
41643;SDS011;44236;48.098;11.582;2023-07-31T19:19:16;5.10;;;2.28;;
41643;SDS011;44236;48.098;11.582;2023-07-31T19:21:42;6.50;;;2.47;;
41643;SDS011;44236;48.098;11.582;2023-07-31T19:24:07;4.80;;;2.00;;
41643;SDS011;44236;48.098;11.582;2023-07-31T19:26:33;6.85;;;2.97;;
41643;SDS011;44236;48.098;11.582;2023-07-31T19:28:58;7.63;;;2.30;;
41643;SDS011;44236;48.098;11.582;2023-07-31T19:31:24;6.30;;;2.20;;
41643;SDS011;44236;48.098;11.582;2023-07-31T19:33:50;4.60;;;1.98;;
41643;SDS011;44236;48.098;11.582;2023-07-31T19:36:15;4.38;;;2.10;;
41643;SDS011;44236;48.098;11.582;2023-07-31T19:38:41;5.07;;;2.20;;
41643;SDS011;44236;48.098;11.582;2023-07-31T19:41:06;6.25;;;1.83;;
41643;SDS011;44236;48.098;11.582;2023-07-31T19:43:32;4.50;;;1.90;;
41643;SDS011;44236;48.098;11.582;2023-07-31T19:45:57;4.50;;;2.08;;
41643;SDS011;44236;48.098;11.582;2023-07-31T19:48:23;4.15;;;2.00;;
41643;SDS011;44236;48.098;11.582;2023-07-31T19:50:49;4.50;;;2.35;;
41643;SDS011;44236;48.098;11.582;2023-07-31T19:53:14;3.83;;;1.95;;
41643;SDS011;44236;48.098;11.582;2023-07-31T19:55:40;7.63;;;2.42;;
41643;SDS011;44236;48.098;11.582;2023-07-31T19:58:06;4.80;;;2.40;;
41643;SDS011;44236;48.098;11.582;2023-07-31T20:00:31;7.20;;;2.63;;
41643;SDS011;44236;48.098;11.582;2023-07-31T20:02:57;6.30;;;2.17;;
41643;SDS011;44236;48.098;11.582;2023-07-31T20:05:24;6.47;;;2.50;;
41643;SDS011;44236;48.098;11.582;2023-07-31T20:07:50;7.63;;;2.25;;
41643;SDS011;44236;48.098;11.582;2023-07-31T20:10:16;9.40;;;2.08;;
41643;SDS011;44236;48.098;11.582;2023-07-31T20:12:41;4.63;;;2.30;;
41643;SDS011;44236;48.098;11.582;2023-07-31T20:15:17;5.78;;;2.47;;
41643;SDS011;44236;48.098;11.582;2023-07-31T20:17:44;3.42;;;1.70;;
41643;SDS011;44236;48.098;11.582;2023-07-31T20:20:10;3.92;;;2.13;;
41643;SDS011;44236;48.098;11.582;2023-07-31T20:22:36;4.13;;;1.83;;
41643;SDS011;44236;48.098;11.582;2023-07-31T20:25:02;3.90;;;2.15;;